TimeEST,TemperatureF,Dew PointF,Humidity,Sea Level PressureIn,VisibilityMPH,Wind Direction,Wind SpeedMPH,Gust SpeedMPH,PrecipitationIn,Events,Conditions,WindDirDegrees,DateUTC
12:53 AM,30.9,19.9,64,30.05,10.0,NW,15.0,23.0,N/A,,Overcast,320,2011-12-20 05:53:00
1:53 AM,28.9,18.0,64,30.09,10.0,WNW,13.8,24.2,N/A,,Overcast,300,2011-12-20 06:53:00
2:53 AM,27.0,16.0,63,30.14,10.0,NW,10.4,20.7,N/A,,Mostly Cloudy,310,2011-12-20 07:53:00
3:53 AM,25.0,15.1,66,30.15,10.0,WNW,8.1,18.4,N/A,,Overcast,300,2011-12-20 08:53:00
4:20 AM,24.8,15.8,69,30.14,10.0,NW,9.2,-,N/A,,Overcast,310,2011-12-20 09:20:00
4:53 AM,24.1,14.0,65,30.18,10.0,NW,5.8,-,N/A,,Overcast,320,2011-12-20 09:53:00
5:53 AM,23.0,12.9,65,30.23,10.0,WNW,11.5,-,N/A,,Overcast,300,2011-12-20 10:53:00
6:09 AM,21.2,12.2,68,30.22,10.0,WNW,11.5,19.6,N/A,,Overcast,300,2011-12-20 11:09:00
6:53 AM,19.4,10.4,68,30.25,10.0,NW,8.1,-,N/A,,Mostly Cloudy,310,2011-12-20 11:53:00
7:53 AM,19.0,9.0,65,30.29,10.0,WNW,6.9,-,N/A,,Overcast,290,2011-12-20 12:53:00
8:53 AM,19.0,9.0,65,30.31,10.0,WNW,8.1,-,N/A,,Overcast,290,2011-12-20 13:53:00
9:46 AM,19.4,8.6,63,30.30,10.0,WNW,8.1,-,N/A,,Mostly Cloudy,300,2011-12-20 14:46:00
9:53 AM,19.9,9.0,62,30.32,10.0,WNW,6.9,-,N/A,,Scattered Clouds,290,2011-12-20 14:53:00
10:53 AM,21.0,10.0,63,30.30,10.0,Calm,Calm,-,N/A,,Partly Cloudy,0,2011-12-20 15:53:00
11:53 AM,21.9,10.0,60,30.27,10.0,Variable,5.8,-,N/A,,Clear,0,2011-12-20 16:53:00
12:53 PM,24.1,10.0,55,30.24,10.0,West,8.1,-,N/A,,Clear,270,2011-12-20 17:53:00
1:53 PM,24.1,9.0,53,30.23,10.0,Variable,3.5,-,N/A,,Clear,0,2011-12-20 18:53:00
2:53 PM,24.1,8.1,51,30.20,10.0,SW,5.8,-,N/A,,Clear,230,2011-12-20 19:53:00
3:53 PM,23.0,8.1,53,30.20,10.0,West,3.5,-,N/A,,Clear,280,2011-12-20 20:53:00
4:53 PM,21.9,9.0,58,30.20,10.0,Calm,Calm,-,N/A,,Clear,0,2011-12-20 21:53:00
5:53 PM,17.1,10.9,77,30.19,10.0,Calm,Calm,-,N/A,,Clear,0,2011-12-20 22:53:00
6:53 PM,16.0,10.9,81,30.19,10.0,Calm,Calm,-,N/A,,Clear,0,2011-12-20 23:53:00
7:53 PM,14.0,10.0,84,30.17,10.0,Calm,Calm,-,N/A,,Clear,0,2011-12-21 00:53:00
8:53 PM,15.1,10.0,80,30.17,10.0,Calm,Calm,-,N/A,,Clear,0,2011-12-21 01:53:00
9:53 PM,14.0,10.0,84,30.14,10.0,Calm,Calm,-,N/A,,Clear,0,2011-12-21 02:53:00
10:53 PM,15.1,10.9,84,30.12,10.0,Calm,Calm,-,N/A,,Clear,0,2011-12-21 03:53:00
11:53 PM,15.1,10.9,84,30.07,10.0,Calm,Calm,-,N/A,,Clear,0,2011-12-21 04:53:00